createdAt,value
2024-01-20T00:00:29.468Z,96880.00
2024-01-20T00:01:29.455Z,96880.00
2024-01-20T00:02:29.469Z,96880.00
2024-01-20T00:03:29.480Z,96879.00
2024-01-20T00:04:29.588Z,96876.00
2024-01-20T00:05:29.553Z,96876.00
2024-01-20T00:06:29.516Z,96876.00
2024-01-20T00:07:29.470Z,96875.00
2024-01-20T00:08:29.560Z,96877.00
2024-01-20T00:09:35.033Z,96878.00
2024-01-20T00:10:30.489Z,96882.00
2024-01-20T00:11:29.495Z,96884.00
2024-01-20T00:12:29.499Z,96883.00
2024-01-20T00:13:29.484Z,96883.00
2024-01-20T00:14:29.495Z,96881.00
2024-01-20T00:15:29.482Z,96882.00
2024-01-20T00:16:29.497Z,96880.00
2024-01-20T00:17:29.558Z,96881.00
2024-01-20T00:18:29.661Z,96881.00
2024-01-20T00:19:29.571Z,96881.00
2024-01-20T00:20:29.637Z,96884.00
2024-01-20T00:21:29.657Z,96885.00
2024-01-20T00:22:29.733Z,96886.00
2024-01-20T00:23:29.827Z,96887.00
2024-01-20T00:24:29.935Z,96892.00
2024-01-20T00:25:29.954Z,96894.00
2024-01-20T00:26:30.034Z,96897.00
2024-01-20T00:27:30.103Z,96900.00
2024-01-20T00:28:30.197Z,96904.00
2024-01-20T00:29:30.246Z,96907.00
2024-01-20T00:30:30.306Z,96913.00
2024-01-20T00:31:30.401Z,96915.00
2024-01-20T00:32:30.631Z,96917.00
2024-01-20T00:33:30.577Z,96918.00
2024-01-20T00:34:39.022Z,96920.00
2024-01-20T00:35:31.599Z,96923.00
2024-01-20T00:36:30.598Z,96924.00
2024-01-20T00:37:30.598Z,96927.00
2024-01-20T00:38:33.308Z,96925.00
2024-01-20T00:39:30.600Z,96924.00
2024-01-20T00:40:30.607Z,96922.00
2024-01-20T00:41:30.642Z,96924.00
2024-01-20T00:42:30.601Z,96924.00
2024-01-20T00:43:38.389Z,96923.00
2024-01-20T00:44:30.604Z,96922.00
2024-01-20T00:45:30.603Z,96921.00
2024-01-20T00:46:30.620Z,96921.00
2024-01-20T00:47:30.645Z,96919.00
2024-01-20T00:48:30.621Z,96916.00
2024-01-20T00:49:30.608Z,96915.00
2024-01-20T00:50:30.660Z,96911.00
2024-01-20T00:51:30.623Z,96909.00
2024-01-20T00:52:30.618Z,96906.00
2024-01-20T00:53:30.621Z,96904.00
2024-01-20T00:54:30.635Z,96908.00
2024-01-20T00:55:30.659Z,96909.00
2024-01-20T00:56:30.718Z,96914.00
2024-01-20T00:57:30.862Z,96916.00
2024-01-20T00:58:30.805Z,96916.00
2024-01-20T00:59:30.841Z,96920.00
2024-01-20T01:00:30.923Z,96920.00
2024-01-20T01:01:30.934Z,96921.00
2024-01-20T01:02:31.047Z,96920.00
2024-01-20T01:03:31.092Z,96921.00
2024-01-20T01:04:31.100Z,96920.00
2024-01-20T01:05:31.150Z,96918.00
2024-01-20T01:06:31.202Z,96919.00
2024-01-20T01:07:31.224Z,96917.00
2024-01-20T01:08:31.258Z,96915.00
2024-01-20T01:09:31.293Z,96914.00
2024-01-20T01:10:31.341Z,96913.00
2024-01-20T01:11:31.395Z,96912.00
2024-01-20T01:12:31.438Z,96912.00
2024-01-20T01:13:31.487Z,96910.00
2024-01-20T01:14:31.531Z,96907.00
2024-01-20T01:15:31.562Z,96906.00
2024-01-20T01:16:31.670Z,96903.00
2024-01-20T01:17:31.702Z,96900.00
2024-01-20T01:18:31.727Z,96898.00
2024-01-20T01:19:31.769Z,96898.00
2024-01-20T01:20:31.836Z,96897.00
2024-01-20T01:21:31.878Z,96900.00
2024-01-20T01:22:31.929Z,96902.00
2024-01-20T01:23:32.068Z,96905.00
2024-01-20T01:24:32.046Z,96907.00
2024-01-20T01:25:32.099Z,96914.00
2024-01-20T01:26:33.471Z,96911.00
2024-01-20T01:27:32.249Z,96911.00
2024-01-20T01:28:32.235Z,96910.00
2024-01-20T01:29:32.326Z,96909.00
2024-01-20T01:30:32.318Z,96907.00
2024-01-20T01:31:32.348Z,96911.00
2024-01-20T01:32:32.545Z,96909.00
2024-01-20T01:33:32.459Z,96909.00
2024-01-20T01:34:32.506Z,96910.00
2024-01-20T01:35:32.623Z,96912.00
2024-01-20T01:36:32.820Z,96914.00
2024-01-20T01:37:32.766Z,96915.00
2024-01-20T01:38:32.730Z,96920.00
2024-01-20T01:39:32.772Z,96921.00
2024-01-20T01:40:32.832Z,96925.00
2024-01-20T01:41:32.888Z,96927.00
2024-01-20T01:42:32.937Z,96930.00
2024-01-20T01:43:38.961Z,96933.00
2024-01-20T01:44:33.034Z,96934.00
2024-01-20T01:45:33.014Z,96932.00
2024-01-20T01:46:33.020Z,96938.00
2024-01-20T01:47:33.026Z,96937.00
2024-01-20T01:48:33.026Z,96938.00
2024-01-20T01:49:33.019Z,96938.00
2024-01-20T01:50:33.046Z,96939.00
2024-01-20T01:51:33.018Z,96940.00
2024-01-20T01:52:33.029Z,96940.00
2024-01-20T01:53:33.014Z,96941.00
2024-01-20T01:54:33.033Z,96941.00
2024-01-20T01:55:33.013Z,96945.00
2024-01-20T01:56:33.014Z,96945.00
2024-01-20T01:57:33.039Z,96946.00
2024-01-20T01:58:33.041Z,96949.00
2024-01-20T01:59:33.011Z,96951.00
2024-01-20T02:00:33.053Z,96952.00
2024-01-20T02:01:33.078Z,96952.00
2024-01-20T02:02:33.032Z,96954.00
2024-01-20T02:03:33.156Z,96950.00
2024-01-20T02:04:33.106Z,96949.00
2024-01-20T02:05:33.017Z,96947.00
2024-01-20T02:06:33.102Z,96947.00
2024-01-20T02:07:33.021Z,96947.00
2024-01-20T02:08:33.032Z,96944.00
2024-01-20T02:09:33.034Z,96945.00
2024-01-20T02:10:33.041Z,96945.00
2024-01-20T02:11:33.029Z,96944.00
2024-01-20T02:12:33.057Z,96941.00
2024-01-20T02:13:33.947Z,96941.00
2024-01-20T02:14:33.033Z,96938.00
2024-01-20T02:15:33.064Z,96938.00
2024-01-20T02:16:33.054Z,96934.00
2024-01-20T02:17:33.088Z,96932.00
2024-01-20T02:18:34.075Z,96929.00
2024-01-20T02:19:33.090Z,96930.00
2024-01-20T02:20:33.038Z,96931.00
2024-01-20T02:21:33.094Z,96931.00
2024-01-20T02:22:33.059Z,96934.00
2024-01-20T02:23:33.045Z,96934.00
2024-01-20T02:24:33.091Z,96935.00
2024-01-20T02:25:33.041Z,96936.00
2024-01-20T02:26:33.053Z,96936.00
2024-01-20T02:27:33.070Z,96939.00
2024-01-20T02:28:33.977Z,96938.00
2024-01-20T02:29:33.058Z,96940.00
2024-01-20T02:30:33.137Z,96941.00
2024-01-20T02:31:33.056Z,96940.00
2024-01-20T02:32:33.175Z,96940.00
2024-01-20T02:33:39.108Z,96940.00
2024-01-20T02:34:33.130Z,96939.00
2024-01-20T02:35:33.123Z,96939.00
2024-01-20T02:36:33.115Z,96936.00
2024-01-20T02:37:33.116Z,96937.00
2024-01-20T02:38:33.120Z,96936.00
2024-01-20T02:39:33.124Z,96934.00
2024-01-20T02:40:33.135Z,96935.00
2024-01-20T02:41:33.113Z,96937.00
2024-01-20T02:42:33.118Z,96938.00
2024-01-20T02:43:33.119Z,96938.00
2024-01-20T02:44:33.127Z,96940.00
2024-01-20T02:45:33.234Z,96939.00
2024-01-20T02:46:33.123Z,96940.00
2024-01-20T02:47:33.148Z,96941.00
2024-01-20T02:48:33.175Z,96940.00
2024-01-20T02:49:33.311Z,96941.00
2024-01-20T02:50:33.131Z,96941.00
2024-01-20T02:51:33.153Z,96940.00
2024-01-20T02:52:33.142Z,96943.00
2024-01-20T02:53:33.130Z,96944.00
2024-01-20T02:54:33.229Z,96945.00
2024-01-20T02:55:33.123Z,96948.00
2024-01-20T02:56:33.141Z,96949.00
2024-01-20T02:57:33.208Z,96951.00
2024-01-20T02:58:33.145Z,96949.00
2024-01-20T02:59:33.140Z,96947.00
2024-01-20T03:00:33.365Z,96945.00
2024-01-20T03:01:33.189Z,96943.00
2024-01-20T03:02:33.142Z,96940.00
2024-01-20T03:03:33.190Z,96938.00
2024-01-20T03:04:33.153Z,96936.00
2024-01-20T03:05:33.202Z,96938.00
2024-01-20T03:06:33.185Z,96936.00
2024-01-20T03:07:33.142Z,96938.00
2024-01-20T03:08:33.150Z,96938.00
2024-01-20T03:09:33.203Z,96939.00
2024-01-20T03:10:33.141Z,96939.00
2024-01-20T03:11:33.139Z,96941.00
2024-01-20T03:12:33.164Z,96941.00
2024-01-20T03:13:33.156Z,96939.00
2024-01-20T03:14:33.155Z,96941.00
2024-01-20T03:15:33.197Z,96939.00
2024-01-20T03:16:33.156Z,96938.00
2024-01-20T03:17:33.199Z,96939.00
2024-01-20T03:18:33.198Z,96941.00
2024-01-20T03:19:33.206Z,96939.00
2024-01-20T03:20:33.158Z,96942.00
2024-01-20T03:21:33.187Z,96946.00
2024-01-20T03:22:33.163Z,96946.00
2024-01-20T03:23:33.153Z,96947.00
2024-01-20T03:24:33.180Z,96951.00
2024-01-20T03:25:33.149Z,96952.00
2024-01-20T03:26:33.164Z,96950.00
2024-01-20T03:27:33.163Z,96951.00
2024-01-20T03:28:33.152Z,96953.00
2024-01-20T03:29:33.162Z,96949.00
2024-01-20T03:30:33.247Z,96949.00
2024-01-20T03:31:33.147Z,96949.00
2024-01-20T03:32:33.196Z,96949.00
2024-01-20T03:33:33.204Z,96951.00
2024-01-20T03:34:33.217Z,96952.00
2024-01-20T03:35:33.168Z,96952.00
2024-01-20T03:36:33.266Z,96952.00
2024-01-20T03:37:33.152Z,96951.00
2024-01-20T03:38:33.160Z,96949.00
2024-01-20T03:39:33.284Z,96947.00
2024-01-20T03:40:33.163Z,96943.00
2024-01-20T03:41:33.165Z,96941.00
2024-01-20T03:42:33.324Z,96939.00
2024-01-20T03:43:33.179Z,96937.00
2024-01-20T03:44:33.158Z,96938.00
2024-01-20T03:45:33.321Z,96941.00
2024-01-20T03:46:33.169Z,96942.00
2024-01-20T03:47:34.220Z,96942.00
2024-01-20T03:48:33.606Z,96947.00
2024-01-20T03:49:33.297Z,96947.00
2024-01-20T03:50:33.276Z,96947.00
2024-01-20T03:51:33.325Z,96946.00
2024-01-20T03:52:33.246Z,96948.00
2024-01-20T03:53:33.277Z,96949.00
2024-01-20T03:54:33.177Z,96949.00
2024-01-20T03:55:33.218Z,96952.00
2024-01-20T03:56:33.285Z,96955.00
2024-01-20T03:57:33.233Z,96958.00
2024-01-20T03:58:33.272Z,96962.00
2024-01-20T03:59:33.180Z,96964.00
2024-01-20T04:00:33.264Z,96964.00
2024-01-20T04:01:33.173Z,96963.00
2024-01-20T04:02:33.240Z,96961.00
2024-01-20T04:03:33.335Z,96957.00
2024-01-20T04:04:33.299Z,96957.00
2024-01-20T04:05:33.294Z,96957.00
2024-01-20T04:06:33.258Z,96955.00
2024-01-20T04:07:33.194Z,96957.00
2024-01-20T04:08:33.219Z,96960.00
2024-01-20T04:09:33.937Z,96963.00
2024-01-20T04:10:33.242Z,96962.00
2024-01-20T04:11:33.264Z,96966.00
2024-01-20T04:12:33.288Z,96969.00
2024-01-20T04:13:43.226Z,96971.00
2024-01-20T04:14:33.180Z,96976.00
2024-01-20T04:15:33.382Z,96977.00
2024-01-20T04:16:33.202Z,96979.00
2024-01-20T04:17:33.347Z,96982.00
2024-01-20T04:18:33.281Z,96980.00
2024-01-20T04:19:33.305Z,96981.00
2024-01-20T04:20:33.184Z,96984.00
2024-01-20T04:21:33.272Z,96983.00
2024-01-20T04:22:33.186Z,96982.00
2024-01-20T04:23:33.186Z,96985.00
2024-01-20T04:24:33.212Z,96988.00
2024-01-20T04:25:33.196Z,96986.00
2024-01-20T04:26:33.228Z,96989.00
2024-01-20T04:27:33.272Z,96991.00
2024-01-20T04:28:33.234Z,96993.00
2024-01-20T04:29:33.206Z,96995.00
2024-01-20T04:30:33.228Z,96999.00
2024-01-20T04:31:33.209Z,97004.00
2024-01-20T04:32:40.527Z,97006.00
2024-01-20T04:33:40.619Z,97009.00
2024-01-20T04:34:40.519Z,97009.00
2024-01-20T04:35:40.448Z,97011.00
2024-01-20T04:36:40.453Z,97012.00
2024-01-20T04:37:40.436Z,97014.00
2024-01-20T04:38:40.448Z,97014.00
2024-01-20T04:39:42.608Z,97017.00
2024-01-20T04:40:40.459Z,97018.00
2024-01-20T04:41:40.458Z,97018.00
2024-01-20T04:42:40.474Z,97020.00
2024-01-20T04:43:40.443Z,97020.00
2024-01-20T04:44:40.445Z,97019.00
2024-01-20T04:45:40.544Z,97023.00
2024-01-20T04:46:40.470Z,97023.00
2024-01-20T04:47:40.582Z,97022.00
2024-01-20T04:48:40.620Z,97021.00
2024-01-20T04:49:40.676Z,97021.00
2024-01-20T04:50:40.576Z,97019.00
2024-01-20T04:51:40.630Z,97019.00
2024-01-20T04:52:40.610Z,97016.00
2024-01-20T04:53:40.637Z,97018.00
2024-01-20T04:54:40.683Z,97020.00
2024-01-20T04:55:40.670Z,97020.00
2024-01-20T04:56:40.702Z,97021.00
2024-01-20T04:57:40.787Z,97025.00
2024-01-20T04:58:40.758Z,97024.00
2024-01-20T04:59:40.794Z,97025.00
2024-01-20T05:00:40.933Z,97024.00
2024-01-20T05:01:41.151Z,97022.00
2024-01-20T05:02:40.875Z,97022.00
2024-01-20T05:03:40.982Z,97025.00
2024-01-20T05:04:40.945Z,97026.00
2024-01-20T05:05:41.040Z,97029.00
2024-01-20T05:06:41.130Z,97033.00
2024-01-20T05:07:41.012Z,97035.00
2024-01-20T05:08:49.471Z,97039.00
2024-01-20T05:09:41.116Z,97040.00
2024-01-20T05:10:41.095Z,97046.00
2024-01-20T05:11:41.141Z,97048.00
2024-01-20T05:12:41.186Z,97049.00
2024-01-20T05:13:41.178Z,97053.00
2024-01-20T05:14:41.218Z,97055.00
2024-01-20T05:15:41.276Z,97054.00
2024-01-20T05:16:41.271Z,97056.00
2024-01-20T05:17:41.348Z,97057.00
2024-01-20T05:18:49.758Z,97058.00
2024-01-20T05:19:41.692Z,97061.00
2024-01-20T05:20:41.619Z,97061.00
2024-01-20T05:21:41.616Z,97064.00
2024-01-20T05:22:41.654Z,97065.00
2024-01-20T05:23:41.661Z,97068.00
2024-01-20T05:24:41.710Z,97069.00
2024-01-20T05:25:41.749Z,97071.00
2024-01-20T05:26:41.775Z,97072.00
2024-01-20T05:27:41.812Z,97073.00
2024-01-20T05:28:41.859Z,97073.00
2024-01-20T05:29:41.915Z,97075.00
2024-01-20T05:30:41.981Z,97077.00
2024-01-20T05:31:42.018Z,97080.00
2024-01-20T05:32:42.123Z,97084.00
2024-01-20T05:33:42.113Z,97084.00
2024-01-20T05:34:42.127Z,97087.00
2024-01-20T05:35:42.115Z,97091.00
2024-01-20T05:36:42.159Z,97092.00
2024-01-20T05:37:42.196Z,97093.00
2024-01-20T05:38:44.958Z,97094.00
2024-01-20T05:39:42.232Z,97093.00
2024-01-20T05:40:42.285Z,97094.00
2024-01-20T05:41:42.224Z,97097.00
2024-01-20T05:42:42.232Z,97099.00
2024-01-20T05:43:42.227Z,97098.00
2024-01-20T05:44:43.064Z,97098.00
2024-01-20T05:45:42.283Z,97102.00
2024-01-20T05:46:42.237Z,97102.00
2024-01-20T05:47:42.257Z,97103.00
2024-01-20T05:48:42.381Z,97104.00
2024-01-20T05:49:42.253Z,97104.00
2024-01-20T05:50:42.256Z,97106.00
2024-01-20T05:51:42.242Z,97107.00
2024-01-20T05:52:42.246Z,97108.00
2024-01-20T05:53:42.239Z,97106.00
2024-01-20T05:54:42.266Z,97108.00
2024-01-20T05:55:42.254Z,97110.00
2024-01-20T05:56:42.254Z,97110.00
2024-01-20T05:57:42.248Z,97110.00
2024-01-20T05:58:42.259Z,97113.00
2024-01-20T05:59:42.246Z,97115.00
2024-01-20T06:00:42.293Z,97116.00
2024-01-20T06:01:42.257Z,97114.00
2024-01-20T06:02:42.321Z,97118.00
2024-01-20T06:03:42.628Z,97118.00
2024-01-20T06:04:42.290Z,97120.00
2024-01-20T06:05:42.264Z,97122.00
2024-01-20T06:06:42.340Z,97122.00
2024-01-20T06:07:42.283Z,97125.00
2024-01-20T06:08:42.271Z,97126.00
2024-01-20T06:09:42.273Z,97126.00
2024-01-20T06:10:42.342Z,97124.00
2024-01-20T06:11:42.270Z,97126.00
2024-01-20T06:12:42.269Z,97126.00
2024-01-20T06:13:42.271Z,97129.00
2024-01-20T06:14:42.268Z,97128.00
2024-01-20T06:15:42.276Z,97129.00
2024-01-20T06:16:42.287Z,97129.00
2024-01-20T06:17:42.286Z,97130.00
2024-01-20T06:18:44.707Z,97129.00
2024-01-20T06:19:42.389Z,97130.00
2024-01-20T06:20:42.380Z,97129.00
2024-01-20T06:21:42.425Z,97130.00
2024-01-20T06:22:42.463Z,97130.00
2024-01-20T06:23:42.520Z,97130.00
2024-01-20T06:24:42.553Z,97136.00
2024-01-20T06:25:42.624Z,97137.00
2024-01-20T06:26:42.654Z,97136.00
2024-01-20T06:27:42.707Z,97138.00
2024-01-20T06:28:42.742Z,97140.00
2024-01-20T06:29:42.804Z,97141.00
2024-01-20T06:30:42.853Z,97148.00
2024-01-20T06:31:42.895Z,97149.00
2024-01-20T06:32:42.959Z,97151.00
2024-01-20T06:33:43.105Z,97149.00
2024-01-20T06:34:43.166Z,97148.00
2024-01-20T06:35:43.090Z,97148.00
2024-01-20T06:36:43.128Z,97145.00
2024-01-20T06:37:43.181Z,97144.00
2024-01-20T06:38:43.248Z,97143.00
2024-01-20T06:39:43.284Z,97143.00
2024-01-20T06:40:43.329Z,97145.00
2024-01-20T06:41:43.401Z,97145.00
2024-01-20T06:42:43.444Z,97148.00
2024-01-20T06:43:47.073Z,97152.00
2024-01-20T06:44:43.493Z,97152.00
2024-01-20T06:45:43.576Z,97156.00
2024-01-20T06:46:43.521Z,97156.00
2024-01-20T06:47:43.596Z,97156.00
2024-01-20T06:48:43.805Z,97158.00
2024-01-20T06:49:43.644Z,97159.00
2024-01-20T06:50:43.503Z,97158.00
2024-01-20T06:51:43.504Z,97160.00
2024-01-20T06:52:43.678Z,97163.00
2024-01-20T06:53:43.509Z,97160.00
2024-01-20T06:54:43.507Z,97160.00
2024-01-20T06:55:43.513Z,97162.00
2024-01-20T06:56:43.500Z,97160.00
2024-01-20T06:57:43.582Z,97163.00
2024-01-20T06:58:43.506Z,97161.00
2024-01-20T06:59:43.524Z,97164.00
2024-01-20T07:00:43.647Z,97166.00
2024-01-20T07:01:43.507Z,97169.00
2024-01-20T07:02:43.521Z,97173.00
2024-01-20T07:03:47.755Z,97174.00
2024-01-20T07:04:43.518Z,97174.00
2024-01-20T07:05:43.556Z,97175.00
2024-01-20T07:06:43.543Z,97176.00
2024-01-20T07:07:43.515Z,97176.00
2024-01-20T07:08:48.532Z,97177.00
2024-01-20T07:09:43.540Z,97179.00
2024-01-20T07:10:43.510Z,97180.00
2024-01-20T07:11:43.525Z,97184.00
2024-01-20T07:12:43.571Z,97181.00
2024-01-20T07:13:43.517Z,97184.00
2024-01-20T07:14:43.512Z,97183.00
2024-01-20T07:15:43.741Z,97183.00
2024-01-20T07:16:44.116Z,97185.00
2024-01-20T07:17:43.649Z,97184.00
2024-01-20T07:18:43.702Z,97185.00
2024-01-20T07:19:43.796Z,97184.00
2024-01-20T07:20:43.800Z,97183.00
2024-01-20T07:21:43.800Z,97184.00
2024-01-20T07:22:43.851Z,97185.00
2024-01-20T07:23:43.911Z,97189.00
2024-01-20T07:24:43.956Z,97189.00
2024-01-20T07:25:44.026Z,97195.00
2024-01-20T07:26:44.061Z,97197.00
2024-01-20T07:27:44.114Z,97199.00
2024-01-20T07:28:44.182Z,97203.00
2024-01-20T07:29:44.224Z,97205.00
2024-01-20T07:30:44.279Z,97206.00
2024-01-20T07:31:44.348Z,97209.00
2024-01-20T07:32:44.436Z,97211.00
2024-01-20T07:33:44.549Z,97210.00
2024-01-20T07:34:44.542Z,97212.00
2024-01-20T07:35:44.566Z,97212.00
2024-01-20T07:36:44.622Z,97214.00
2024-01-20T07:37:44.678Z,97212.00
2024-01-20T07:38:44.728Z,97213.00
2024-01-20T07:39:44.834Z,97212.00
2024-01-20T07:40:44.830Z,97212.00
2024-01-20T07:41:44.894Z,97212.00
2024-01-20T07:42:44.989Z,97216.00
2024-01-20T07:43:45.042Z,97218.00
2024-01-20T07:44:45.046Z,97219.00
2024-01-20T07:45:45.222Z,97220.00
2024-01-20T07:46:45.181Z,97218.00
2024-01-20T07:47:45.300Z,97216.00
2024-01-20T07:48:45.413Z,97215.00
2024-01-20T07:49:45.433Z,97215.00
2024-01-20T07:50:45.397Z,97215.00
2024-01-20T07:51:45.467Z,97217.00
2024-01-20T07:52:45.500Z,97220.00
2024-01-20T07:53:45.553Z,97221.00
2024-01-20T07:54:45.637Z,97223.00
2024-01-20T07:55:45.661Z,97225.00
2024-01-20T07:56:45.715Z,97228.00
2024-01-20T07:57:45.811Z,97230.00
2024-01-20T07:58:45.820Z,97231.00
2024-01-20T07:59:45.883Z,97233.00
2024-01-20T08:00:46.016Z,97236.00
2024-01-20T08:01:46.004Z,97233.00
2024-01-20T08:02:46.160Z,97236.00
2024-01-20T08:03:46.146Z,97237.00
2024-01-20T08:04:46.227Z,97237.00
2024-01-20T08:05:46.231Z,97237.00
2024-01-20T08:06:46.415Z,97236.00
2024-01-20T08:07:46.334Z,97240.00
2024-01-20T08:08:46.393Z,97239.00
2024-01-20T08:09:46.496Z,97240.00
2024-01-20T08:10:46.502Z,97240.00
2024-01-20T08:11:46.560Z,97242.00
2024-01-20T08:12:46.598Z,97243.00
2024-01-20T08:13:49.725Z,97244.00
2024-01-20T08:14:46.650Z,97242.00
2024-01-20T08:15:46.714Z,97243.00
2024-01-20T08:16:46.655Z,97242.00
2024-01-20T08:17:46.677Z,97245.00
2024-01-20T08:18:54.886Z,97245.00
2024-01-20T08:19:46.742Z,97244.00
2024-01-20T08:20:46.652Z,97246.00
2024-01-20T08:21:46.670Z,97249.00
2024-01-20T08:22:46.822Z,97248.00
2024-01-20T08:23:46.776Z,97250.00
2024-01-20T08:24:46.852Z,97254.00
2024-01-20T08:25:46.890Z,97257.00
2024-01-20T08:26:46.937Z,97257.00
2024-01-20T08:27:47.006Z,97261.00
2024-01-20T08:28:47.038Z,97261.00
2024-01-20T08:29:47.093Z,97262.00
2024-01-20T08:30:47.208Z,97260.00
2024-01-20T08:31:47.202Z,97261.00
2024-01-20T08:32:47.265Z,97260.00
2024-01-20T08:33:47.428Z,97261.00
2024-01-20T08:34:47.363Z,97259.00
2024-01-20T08:35:47.428Z,97262.00
2024-01-20T08:36:47.492Z,97262.00
2024-01-20T08:37:47.546Z,97265.00
2024-01-20T08:38:47.612Z,97264.00
2024-01-20T08:39:47.667Z,97265.00
2024-01-20T08:40:47.713Z,97267.00
2024-01-20T08:41:47.783Z,97270.00
2024-01-20T08:42:47.847Z,97270.00
2024-01-20T08:43:47.898Z,97272.00
2024-01-20T08:44:47.957Z,97273.00
2024-01-20T08:45:48.072Z,97274.00
2024-01-20T08:46:48.067Z,97272.00
2024-01-20T08:47:48.127Z,97273.00
2024-01-20T08:48:48.206Z,97272.00
2024-01-20T08:49:48.239Z,97269.00
2024-01-20T08:50:48.279Z,97268.00
2024-01-20T08:51:48.355Z,97270.00
2024-01-20T08:52:48.450Z,97270.00
2024-01-20T08:53:48.477Z,97274.00
2024-01-20T08:54:48.509Z,97275.00
2024-01-20T08:55:48.593Z,97276.00
2024-01-20T08:56:48.624Z,97280.00
2024-01-20T08:57:48.697Z,97279.00
2024-01-20T08:58:48.748Z,97279.00
2024-01-20T08:59:48.819Z,97280.00
2024-01-20T09:00:49.024Z,97280.00
2024-01-20T09:01:48.942Z,97278.00
2024-01-20T09:02:49.046Z,97279.00
2024-01-20T09:03:49.220Z,97280.00
2024-01-20T09:04:56.513Z,97280.00
2024-01-20T09:05:56.530Z,97280.00
2024-01-20T09:06:56.508Z,97282.00
2024-01-20T09:07:56.483Z,97281.00
2024-01-20T09:08:56.504Z,97282.00
2024-01-20T09:09:57.148Z,97284.00
2024-01-20T09:10:56.497Z,97286.00
2024-01-20T09:11:56.533Z,97290.00
2024-01-20T09:12:56.491Z,97293.00
2024-01-20T09:13:56.488Z,97292.00
2024-01-20T09:14:56.603Z,97295.00
2024-01-20T09:15:56.678Z,97294.00
2024-01-20T09:16:56.506Z,97295.00
2024-01-20T09:17:56.566Z,97297.00
2024-01-20T09:18:56.623Z,97296.00
2024-01-20T09:19:56.692Z,97299.00
2024-01-20T09:20:56.536Z,97297.00
2024-01-20T09:21:56.501Z,97298.00
2024-01-20T09:22:56.517Z,97298.00
2024-01-20T09:23:56.522Z,97299.00
2024-01-20T09:24:56.509Z,97301.00
2024-01-20T09:25:56.515Z,97303.00
2024-01-20T09:26:56.646Z,97303.00
2024-01-20T09:27:56.628Z,97301.00
2024-01-20T09:28:56.732Z,97304.00
2024-01-20T09:29:56.813Z,97301.00
2024-01-20T09:30:56.820Z,97300.00
2024-01-20T09:31:56.898Z,97298.00
2024-01-20T09:32:57.089Z,97298.00
2024-01-20T09:33:57.062Z,97296.00
2024-01-20T09:34:57.087Z,97296.00
2024-01-20T09:35:57.159Z,97294.00
2024-01-20T09:36:57.204Z,97293.00
2024-01-20T09:37:57.268Z,97293.00
2024-01-20T09:39:06.984Z,97293.00
2024-01-20T09:39:57.317Z,97294.00
2024-01-20T09:40:57.324Z,97292.00
2024-01-20T09:41:57.348Z,97294.00
2024-01-20T09:42:57.327Z,97292.00
2024-01-20T09:43:57.325Z,97292.00
2024-01-20T09:44:57.332Z,97291.00
2024-01-20T09:45:57.325Z,97289.00
2024-01-20T09:46:57.324Z,97289.00
2024-01-20T09:47:57.487Z,97290.00
2024-01-20T09:48:57.434Z,97288.00
2024-01-20T09:49:57.346Z,97289.00
2024-01-20T09:50:57.347Z,97289.00
2024-01-20T09:51:57.327Z,97288.00
2024-01-20T09:52:57.335Z,97288.00
2024-01-20T09:53:57.336Z,97284.00
2024-01-20T09:54:57.351Z,97283.00
2024-01-20T09:55:57.326Z,97281.00
2024-01-20T09:56:57.392Z,97279.00
2024-01-20T09:57:57.432Z,97277.00
2024-01-20T09:58:57.343Z,97276.00
2024-01-20T09:59:58.719Z,97272.00
2024-01-20T10:00:57.413Z,97274.00
2024-01-20T10:01:57.345Z,97271.00
2024-01-20T10:02:57.393Z,97273.00
2024-01-20T10:03:57.522Z,97274.00
2024-01-20T10:04:57.410Z,97272.00
2024-01-20T10:05:57.365Z,97274.00
2024-01-20T10:06:57.351Z,97272.00
2024-01-20T10:07:57.423Z,97274.00
2024-01-20T10:08:57.538Z,97275.00
2024-01-20T10:09:57.542Z,97276.00
2024-01-20T10:10:57.611Z,97275.00
2024-01-20T10:11:57.713Z,97276.00
2024-01-20T10:12:57.757Z,97273.00
2024-01-20T10:13:57.823Z,97272.00
2024-01-20T10:14:57.927Z,97272.00
2024-01-20T10:15:57.973Z,97273.00
2024-01-20T10:16:58.035Z,97272.00
2024-01-20T10:17:58.178Z,97273.00
2024-01-20T10:18:58.230Z,97272.00
2024-01-20T10:19:58.245Z,97274.00
2024-01-20T10:20:58.341Z,97272.00
2024-01-20T10:21:58.362Z,97272.00
2024-01-20T10:22:58.437Z,97272.00
2024-01-20T10:23:58.558Z,97268.00
2024-01-20T10:24:58.559Z,97266.00
2024-01-20T10:25:58.624Z,97265.00
2024-01-20T10:26:58.732Z,97261.00
2024-01-20T10:27:58.754Z,97261.00
2024-01-20T10:28:58.830Z,97261.00
2024-01-20T10:29:58.921Z,97259.00
2024-01-20T10:30:59.049Z,97261.00
2024-01-20T10:31:59.051Z,97261.00
2024-01-20T10:33:08.554Z,97260.00
2024-01-20T10:34:00.318Z,97262.00
2024-01-20T10:34:59.228Z,97261.00
2024-01-20T10:35:59.139Z,97262.00
2024-01-20T10:36:59.128Z,97263.00
2024-01-20T10:37:59.129Z,97261.00
2024-01-20T10:38:59.168Z,97263.00
2024-01-20T10:39:59.124Z,97264.00
2024-01-20T10:40:59.158Z,97269.00
2024-01-20T10:41:59.241Z,97267.00
2024-01-20T10:42:59.288Z,97268.00
2024-01-20T10:43:59.358Z,97269.00
2024-01-20T10:44:59.473Z,97266.00
2024-01-20T10:45:59.516Z,97266.00
2024-01-20T10:46:59.580Z,97268.00
2024-01-20T10:47:59.874Z,97266.00
2024-01-20T10:48:59.788Z,97267.00
2024-01-20T10:49:59.847Z,97270.00
2024-01-20T10:50:59.965Z,97269.00
2024-01-20T10:51:59.973Z,97269.00
2024-01-20T10:52:59.989Z,97267.00
2024-01-20T10:54:00.075Z,97270.00
2024-01-20T10:55:00.153Z,97270.00
2024-01-20T10:56:00.171Z,97268.00
2024-01-20T10:57:00.287Z,97269.00
2024-01-20T10:58:00.306Z,97268.00
2024-01-20T10:59:00.378Z,97266.00
2024-01-20T11:00:00.540Z,97265.00
2024-01-20T11:01:00.587Z,97263.00
2024-01-20T11:02:00.595Z,97263.00
2024-01-20T11:03:00.762Z,97259.00
2024-01-20T11:04:00.886Z,97258.00
2024-01-20T11:05:01.625Z,97255.00
2024-01-20T11:06:00.942Z,97253.00
2024-01-20T11:07:01.021Z,97252.00
2024-01-20T11:08:01.013Z,97251.00
2024-01-20T11:09:01.162Z,97248.00
2024-01-20T11:10:01.202Z,97249.00
2024-01-20T11:11:01.243Z,97250.00
2024-01-20T11:12:01.374Z,97250.00
2024-01-20T11:13:01.369Z,97248.00
2024-01-20T11:14:01.436Z,97252.00
2024-01-20T11:15:01.601Z,97251.00
2024-01-20T11:16:01.592Z,97251.00
2024-01-20T11:17:01.717Z,97248.00
2024-01-20T11:18:03.143Z,97250.00
2024-01-20T11:19:01.870Z,97249.00
2024-01-20T11:20:01.876Z,97249.00
2024-01-20T11:21:02.011Z,97252.00
2024-01-20T11:22:02.007Z,97250.00
2024-01-20T11:23:02.077Z,97252.00
2024-01-20T11:24:02.276Z,97254.00
2024-01-20T11:25:02.249Z,97253.00
2024-01-20T11:26:02.281Z,97254.00
2024-01-20T11:27:02.395Z,97254.00
2024-01-20T11:28:02.446Z,97253.00
2024-01-20T11:29:09.902Z,97250.00
2024-01-20T11:30:02.571Z,97251.00
2024-01-20T11:31:02.504Z,97252.00
2024-01-20T11:32:02.495Z,97252.00
2024-01-20T11:33:02.650Z,97251.00
2024-01-20T11:34:02.662Z,97251.00
2024-01-20T11:35:02.514Z,97250.00
2024-01-20T11:36:02.553Z,97249.00
2024-01-20T11:37:02.519Z,97250.00
2024-01-20T11:38:02.509Z,97246.00
2024-01-20T11:39:02.609Z,97246.00
2024-01-20T11:40:02.514Z,97247.00
2024-01-20T11:41:02.798Z,97247.00
2024-01-20T11:42:02.690Z,97242.00
2024-01-20T11:43:02.516Z,97241.00
2024-01-20T11:44:02.523Z,97240.00
2024-01-20T11:45:02.597Z,97238.00